createdAt,value
2017-08-24T00:00:50.968Z,59.50
2017-08-24T00:03:19.433Z,57.30
2017-08-24T00:05:47.684Z,58.80
2017-08-24T00:08:16.302Z,60.00
2017-08-24T00:10:44.544Z,61.90
2017-08-24T00:13:12.790Z,61.90
2017-08-24T00:15:41.063Z,63.30
2017-08-24T00:18:09.296Z,62.40
2017-08-24T00:20:37.757Z,63.10
2017-08-24T00:23:06.026Z,63.70
2017-08-24T00:25:34.265Z,63.90
2017-08-24T00:28:02.531Z,64.20
2017-08-24T00:30:30.798Z,64.60
2017-08-24T00:32:59.043Z,64.20
2017-08-24T00:35:27.293Z,64.40
2017-08-24T00:37:55.562Z,63.90
2017-08-24T00:40:23.816Z,63.90
2017-08-24T00:42:52.082Z,63.00
2017-08-24T00:45:20.480Z,65.50
2017-08-24T00:47:48.736Z,65.70
2017-08-24T00:50:16.983Z,65.80
2017-08-24T00:52:45.389Z,66.00
2017-08-24T00:55:13.641Z,65.80
2017-08-24T00:57:41.900Z,66.70
2017-08-24T01:00:10.238Z,67.30
2017-08-24T01:02:38.468Z,67.60
2017-08-24T01:05:06.708Z,67.40
2017-08-24T01:07:35.222Z,66.60
2017-08-24T01:12:38.128Z,67.10
2017-08-24T01:15:06.384Z,67.60
2017-08-24T01:17:34.684Z,67.40
2017-08-24T01:20:03.144Z,67.80
2017-08-24T01:22:31.583Z,68.00
2017-08-24T01:24:59.825Z,68.20
2017-08-24T01:27:28.117Z,68.30
2017-08-24T01:29:56.359Z,69.60
2017-08-24T01:32:24.597Z,69.10
2017-08-24T01:34:52.980Z,70.00
2017-08-24T01:37:21.216Z,70.30
2017-08-24T01:39:49.480Z,69.80
2017-08-24T01:42:17.987Z,69.60
2017-08-24T01:44:47.145Z,70.00
2017-08-24T01:47:15.390Z,70.10
2017-08-24T01:49:44.033Z,69.80
2017-08-24T01:52:12.298Z,70.00
2017-08-24T01:54:40.539Z,69.20
2017-08-24T01:57:08.812Z,69.60
2017-08-24T01:59:37.067Z,69.60
2017-08-24T02:02:05.314Z,71.20
2017-08-24T02:04:33.817Z,70.30
2017-08-24T02:07:02.067Z,71.20
2017-08-24T02:09:30.317Z,69.40
2017-08-24T02:11:58.652Z,68.90
2017-08-24T02:14:26.905Z,69.40
2017-08-24T02:16:55.375Z,70.70
2017-08-24T02:19:23.789Z,69.40
2017-08-24T02:21:52.041Z,68.50
2017-08-24T02:24:20.300Z,69.20
2017-08-24T02:26:48.744Z,69.20
2017-08-24T02:29:17.006Z,69.60
2017-08-24T02:31:45.251Z,70.00
2017-08-24T02:34:13.543Z,68.20
2017-08-24T02:36:41.779Z,68.50
2017-08-24T02:39:10.031Z,68.20
2017-08-24T02:41:38.307Z,70.70
2017-08-24T02:44:06.555Z,70.70
2017-08-24T02:46:34.792Z,71.20
2017-08-24T02:49:03.081Z,70.70
2017-08-24T02:51:31.330Z,70.00
2017-08-24T02:53:59.800Z,70.10
2017-08-24T02:56:28.131Z,70.00
2017-08-24T02:58:56.373Z,66.00
2017-08-24T03:01:24.628Z,66.60
2017-08-24T03:03:53.086Z,65.10
2017-08-24T03:06:21.347Z,64.20
2017-08-24T03:08:49.637Z,64.80
2017-08-24T03:11:17.904Z,65.50
2017-08-24T03:13:46.155Z,66.20
2017-08-24T03:16:17.966Z,67.80
2017-08-24T03:18:46.501Z,68.70
2017-08-24T03:21:14.773Z,68.70
2017-08-24T03:23:43.048Z,68.70
2017-08-24T03:26:11.297Z,68.30
2017-08-24T03:28:39.540Z,68.70
2017-08-24T03:31:07.832Z,67.80
2017-08-24T03:33:36.080Z,67.40
2017-08-24T03:36:04.323Z,67.40
2017-08-24T03:38:32.609Z,68.30
2017-08-24T03:41:00.863Z,68.70
2017-08-24T03:43:29.325Z,70.30
2017-08-24T03:45:57.600Z,70.50
2017-08-24T03:48:25.840Z,71.80
2017-08-24T03:50:54.081Z,70.50
2017-08-24T03:53:22.352Z,69.80
2017-08-24T03:55:50.671Z,70.10
2017-08-24T03:58:19.200Z,69.80
2017-08-24T04:00:48.183Z,70.10
2017-08-24T04:03:16.671Z,70.50
2017-08-24T04:05:44.916Z,70.70
2017-08-24T04:08:13.398Z,70.70
2017-08-24T04:10:41.647Z,70.50
2017-08-24T04:13:09.883Z,69.20
2017-08-24T04:15:38.294Z,69.60
2017-08-24T04:18:06.536Z,68.70
2017-08-24T04:20:34.772Z,69.10
2017-08-24T04:23:03.071Z,69.60
2017-08-24T04:25:31.382Z,70.30
2017-08-24T04:27:59.979Z,70.90
2017-08-24T04:30:28.319Z,71.60
2017-08-24T04:32:56.807Z,71.40
2017-08-24T04:35:25.042Z,71.60
2017-08-24T04:37:53.480Z,71.00
2017-08-24T04:40:21.725Z,71.00
2017-08-24T04:42:49.978Z,71.80
2017-08-24T04:45:18.258Z,71.80
2017-08-24T04:47:46.488Z,71.80
2017-08-24T04:50:14.864Z,71.80
2017-08-24T04:52:43.129Z,71.20
2017-08-24T04:55:11.598Z,71.60
2017-08-24T04:57:39.845Z,71.00
2017-08-24T05:00:08.250Z,70.50
2017-08-24T05:02:36.489Z,71.20
2017-08-24T05:05:04.736Z,71.00
2017-08-24T05:07:33.149Z,71.20
2017-08-24T05:10:01.399Z,70.30
2017-08-24T05:12:29.686Z,70.50
2017-08-24T05:14:57.976Z,70.50
2017-08-24T05:17:26.212Z,70.90
2017-08-24T05:19:54.458Z,71.00
2017-08-24T05:22:22.721Z,70.90
2017-08-24T05:24:50.961Z,70.50
2017-08-24T05:27:19.225Z,70.90
2017-08-24T05:29:47.879Z,70.30
2017-08-24T05:32:16.148Z,69.60
2017-08-24T05:34:44.433Z,69.60
2017-08-24T05:37:12.741Z,69.20
2017-08-24T05:39:40.992Z,68.50
2017-08-24T05:42:09.244Z,68.50
2017-08-24T05:44:37.524Z,68.70
2017-08-24T05:47:05.772Z,68.50
2017-08-24T05:49:34.025Z,68.20
2017-08-24T05:52:02.341Z,67.80
2017-08-24T05:54:30.584Z,67.40
2017-08-24T05:56:58.828Z,67.10
2017-08-24T05:59:27.273Z,66.70
2017-08-24T06:01:55.893Z,64.80
2017-08-24T06:04:24.129Z,63.70
2017-08-24T06:06:52.424Z,63.30
2017-08-24T06:09:20.712Z,63.00
2017-08-24T06:11:48.960Z,62.20
2017-08-24T06:14:17.229Z,60.40
2017-08-24T06:16:45.776Z,60.00
2017-08-24T06:19:14.004Z,59.50
2017-08-24T06:21:42.296Z,59.10
2017-08-24T06:24:11.341Z,58.30
2017-08-24T06:26:39.628Z,57.00
2017-08-24T06:29:08.030Z,56.00
2017-08-24T06:31:36.597Z,54.20
2017-08-24T06:34:04.914Z,54.20
2017-08-24T06:36:33.308Z,54.50
2017-08-24T06:39:01.588Z,54.10
2017-08-24T06:41:29.824Z,53.60
2017-08-24T06:43:58.123Z,52.90
2017-08-24T06:46:26.367Z,52.90
2017-08-24T06:48:54.619Z,53.50
2017-08-24T06:51:22.894Z,53.90
2017-08-24T06:53:51.137Z,54.10
2017-08-24T06:56:19.382Z,55.10
2017-08-24T06:58:48.035Z,54.90
2017-08-24T07:01:16.277Z,55.10
2017-08-24T07:03:45.203Z,54.90
2017-08-24T07:06:13.473Z,54.80
2017-08-24T07:08:41.753Z,55.40
2017-08-24T07:11:09.981Z,55.70
2017-08-24T07:13:38.398Z,55.70
2017-08-24T07:16:06.648Z,55.80
2017-08-24T07:18:36.034Z,56.60
2017-08-24T07:21:04.792Z,56.60
2017-08-24T07:23:33.058Z,56.00
2017-08-24T07:26:01.317Z,56.00
2017-08-24T07:28:29.575Z,56.10
2017-08-24T07:30:58.844Z,55.70
2017-08-24T07:33:27.114Z,55.20
2017-08-24T07:35:55.578Z,54.50
2017-08-24T07:38:23.823Z,52.40
2017-08-24T07:40:52.949Z,51.70
2017-08-24T07:43:21.548Z,51.40
2017-08-24T07:45:49.822Z,50.10
2017-08-24T07:48:18.159Z,49.00
2017-08-24T07:50:46.689Z,47.30
2017-08-24T07:53:14.964Z,46.70
2017-08-24T07:55:43.286Z,44.90
2017-08-24T07:58:11.592Z,45.00
2017-08-24T08:00:39.849Z,42.50
2017-08-24T08:03:08.151Z,41.60
2017-08-24T08:05:36.672Z,40.50
2017-08-24T08:08:04.968Z,42.10
2017-08-24T08:10:33.235Z,41.50
2017-08-24T08:13:01.497Z,40.90
2017-08-24T08:15:29.764Z,40.90
2017-08-24T08:17:59.204Z,39.70
2017-08-24T08:20:27.454Z,38.80
2017-08-24T08:22:57.233Z,38.40
2017-08-24T08:25:25.517Z,38.70
2017-08-24T08:27:53.765Z,38.40
2017-08-24T08:30:22.251Z,37.80
2017-08-24T08:32:50.661Z,38.80
2017-08-24T08:35:18.921Z,37.90
2017-08-24T08:37:47.196Z,38.70
2017-08-24T08:40:15.460Z,38.10
2017-08-24T08:42:43.737Z,38.10
2017-08-24T08:45:11.997Z,37.90
2017-08-24T08:47:40.320Z,37.40
2017-08-24T08:50:08.626Z,36.90
2017-08-24T08:52:37.975Z,38.80
2017-08-24T08:55:06.726Z,38.70
2017-08-24T08:57:35.009Z,38.10
2017-08-24T09:00:03.250Z,38.70
2017-08-24T09:02:31.848Z,38.40
2017-08-24T09:05:00.324Z,38.40
2017-08-24T09:07:28.559Z,37.50
2017-08-24T09:09:56.845Z,36.50
2017-08-24T09:12:25.091Z,40.00
2017-08-24T09:14:53.410Z,43.10
2017-08-24T09:17:21.769Z,43.40
2017-08-24T09:19:50.086Z,45.20
2017-08-24T09:22:18.349Z,45.00
2017-08-24T09:24:49.273Z,44.70
2017-08-24T09:27:17.551Z,44.10
2017-08-24T09:29:46.019Z,45.50
2017-08-24T09:32:14.346Z,44.90
2017-08-24T09:34:42.585Z,45.60
2017-08-24T09:37:11.741Z,45.50
2017-08-24T09:39:40.037Z,46.50
2017-08-24T09:42:08.352Z,46.70
2017-08-24T09:44:36.603Z,46.40
2017-08-24T09:47:05.332Z,48.00
2017-08-24T09:49:33.674Z,48.10
2017-08-24T09:52:01.940Z,46.80
2017-08-24T09:54:30.192Z,46.70
2017-08-24T09:56:58.657Z,47.00
2017-08-24T09:59:27.852Z,47.40
2017-08-24T10:01:56.088Z,48.90
2017-08-24T10:04:28.196Z,49.50
2017-08-24T10:06:57.376Z,52.90
2017-08-24T10:09:25.633Z,57.00
2017-08-24T10:11:53.935Z,57.30
2017-08-24T10:14:22.206Z,58.90
2017-08-24T10:16:50.458Z,60.10
2017-08-24T10:19:18.881Z,58.20
2017-08-24T10:21:47.188Z,59.40
2017-08-24T10:24:15.440Z,59.40
2017-08-24T10:26:43.725Z,58.00
2017-08-24T10:29:12.063Z,57.40
2017-08-24T10:31:40.357Z,56.90
2017-08-24T10:34:08.584Z,55.10
2017-08-24T10:36:36.820Z,54.80
2017-08-24T10:39:05.068Z,53.80
2017-08-24T10:41:33.318Z,52.10
2017-08-24T10:44:01.562Z,51.10
2017-08-24T10:46:29.861Z,50.70
2017-08-24T10:48:58.325Z,50.40
2017-08-24T10:51:26.580Z,49.90
2017-08-24T10:53:55.110Z,49.30
2017-08-24T10:56:23.352Z,48.70
2017-08-24T10:58:52.375Z,48.40
2017-08-24T11:01:20.662Z,47.80
2017-08-24T11:03:48.939Z,48.10
2017-08-24T11:06:17.582Z,47.40
2017-08-24T11:08:47.070Z,46.80
2017-08-24T11:11:15.532Z,45.90
2017-08-24T11:13:44.939Z,45.00
2017-08-24T11:16:13.428Z,45.50
2017-08-24T11:18:41.718Z,44.90
2017-08-24T11:21:09.956Z,45.90
2017-08-24T11:23:38.236Z,44.10
2017-08-24T11:26:06.504Z,44.60
2017-08-24T11:28:34.731Z,43.90
2017-08-24T11:31:03.172Z,43.40
2017-08-24T11:33:31.516Z,42.20
2017-08-24T11:35:59.752Z,41.00
2017-08-24T11:38:28.033Z,40.70
2017-08-24T11:40:56.488Z,39.60
2017-08-24T11:43:24.741Z,39.40
2017-08-24T11:45:53.174Z,38.40
2017-08-24T11:48:21.429Z,38.40
2017-08-24T11:50:49.749Z,38.10
2017-08-24T11:53:18.165Z,37.40
2017-08-24T11:55:46.720Z,37.60
2017-08-24T11:58:15.091Z,37.40
2017-08-24T12:00:43.598Z,37.50
2017-08-24T12:03:12.026Z,37.10
2017-08-24T12:05:40.290Z,37.40
2017-08-24T12:08:09.421Z,36.90
2017-08-24T12:10:37.697Z,36.90
2017-08-24T12:13:05.929Z,36.50
2017-08-24T12:15:34.233Z,36.80
2017-08-24T12:18:02.599Z,37.10
2017-08-24T12:20:30.852Z,36.60
2017-08-24T12:22:59.283Z,36.30
2017-08-24T12:25:27.508Z,35.90
2017-08-24T12:27:55.840Z,35.40
2017-08-24T12:30:24.101Z,35.40
2017-08-24T12:32:52.332Z,35.70
2017-08-24T12:35:20.583Z,37.20
2017-08-24T12:37:48.871Z,36.60
2017-08-24T12:40:17.103Z,36.50
2017-08-24T12:42:45.345Z,36.00
2017-08-24T12:45:13.635Z,36.20
2017-08-24T12:47:41.881Z,35.90
2017-08-24T12:50:10.117Z,35.10
2017-08-24T12:52:38.369Z,34.50
2017-08-24T12:55:06.603Z,34.20
2017-08-24T12:57:34.854Z,34.40
2017-08-24T13:00:03.269Z,34.00
2017-08-24T13:02:31.504Z,33.50
2017-08-24T13:05:00.639Z,33.70
2017-08-24T13:07:28.924Z,33.50
2017-08-24T13:09:57.184Z,33.50
2017-08-24T13:12:25.426Z,34.00
2017-08-24T13:14:53.856Z,33.80
2017-08-24T13:17:22.113Z,34.70
2017-08-24T13:19:50.579Z,34.50
2017-08-24T13:22:19.085Z,34.70
2017-08-24T13:24:47.329Z,34.50
2017-08-24T13:27:15.563Z,34.40
2017-08-24T13:29:43.967Z,34.20
2017-08-24T13:32:12.205Z,34.40
2017-08-24T13:34:40.484Z,35.90
2017-08-24T13:37:08.765Z,36.60
2017-08-24T13:39:37.028Z,37.50
2017-08-24T13:42:05.557Z,37.80
2017-08-24T13:44:33.829Z,38.80
2017-08-24T13:47:02.169Z,40.70
2017-08-24T13:49:30.415Z,41.30
2017-08-24T13:51:58.703Z,42.20
2017-08-24T13:54:26.959Z,42.70
2017-08-24T13:56:55.216Z,42.70
2017-08-24T13:59:23.495Z,43.10
2017-08-24T14:01:51.735Z,43.40
2017-08-24T14:04:19.983Z,43.70
2017-08-24T14:06:48.500Z,45.00
2017-08-24T14:09:16.773Z,44.30
2017-08-24T14:11:45.256Z,45.00
2017-08-24T14:14:13.536Z,44.70
2017-08-24T14:16:41.786Z,47.40
2017-08-24T14:19:10.663Z,48.10
2017-08-24T14:21:39.081Z,48.70
2017-08-24T14:24:07.848Z,49.90
2017-08-24T14:26:36.089Z,51.40
2017-08-24T14:29:04.426Z,53.20
2017-08-24T14:31:32.687Z,55.40
2017-08-24T14:34:01.202Z,56.40
2017-08-24T14:36:29.632Z,57.60
2017-08-24T14:38:58.109Z,56.70
2017-08-24T14:41:26.388Z,56.70
2017-08-24T14:43:54.658Z,57.00
2017-08-24T14:46:22.900Z,57.90
2017-08-24T14:48:51.508Z,58.80
2017-08-24T14:51:19.801Z,59.80
2017-08-24T14:53:48.208Z,60.30
2017-08-24T14:56:16.439Z,60.40
2017-08-24T14:58:44.705Z,61.30
2017-08-24T15:01:12.942Z,61.50
2017-08-24T15:03:41.188Z,62.20
2017-08-24T15:06:10.315Z,63.50
2017-08-24T15:08:38.559Z,64.00
2017-08-24T15:11:06.820Z,64.40
2017-08-24T15:13:35.110Z,64.90
2017-08-24T15:16:03.414Z,65.50
2017-08-24T15:18:31.780Z,66.60
2017-08-24T15:21:00.209Z,66.20
2017-08-24T15:23:28.458Z,65.10
2017-08-24T15:25:56.716Z,64.00
2017-08-24T15:28:25.195Z,63.90
2017-08-24T15:30:53.500Z,62.60
2017-08-24T15:33:21.869Z,61.20
2017-08-24T15:35:50.201Z,59.70
2017-08-24T15:38:18.677Z,59.40
2017-08-24T15:40:47.095Z,58.00
2017-08-24T15:43:15.577Z,58.30
2017-08-24T15:45:43.834Z,57.70
2017-08-24T15:48:12.260Z,57.40
2017-08-24T15:50:40.554Z,56.90
2017-08-24T15:53:08.808Z,56.90
2017-08-24T15:55:37.083Z,56.30
2017-08-24T15:58:05.321Z,54.60
2017-08-24T16:00:33.592Z,55.20
2017-08-24T16:03:01.852Z,54.90
2017-08-24T16:05:30.113Z,55.10
2017-08-24T16:07:58.634Z,54.60
2017-08-24T16:10:26.883Z,53.80
2017-08-24T16:12:55.136Z,53.20
2017-08-24T16:15:23.595Z,53.30
2017-08-24T16:17:51.904Z,52.30
2017-08-24T16:20:20.185Z,52.30
2017-08-24T16:22:48.764Z,52.10
2017-08-24T16:25:17.023Z,52.40
2017-08-24T16:27:45.313Z,52.60
2017-08-24T16:30:13.636Z,53.20
2017-08-24T16:32:41.924Z,52.10
2017-08-24T16:35:10.217Z,52.10
2017-08-24T16:37:38.488Z,53.00
2017-08-24T16:40:06.751Z,53.20
2017-08-24T16:42:35.038Z,53.00
2017-08-24T16:45:04.194Z,52.70
2017-08-24T16:47:32.697Z,53.20
2017-08-24T16:50:00.950Z,53.20
2017-08-24T16:52:29.284Z,53.60
2017-08-24T16:54:57.560Z,53.50
2017-08-24T16:57:25.842Z,53.30
2017-08-24T16:59:55.110Z,53.60
2017-08-24T17:02:23.384Z,53.50
2017-08-24T17:04:51.648Z,53.90
2017-08-24T17:07:19.899Z,53.60
2017-08-24T17:09:48.321Z,53.90
2017-08-24T17:12:16.689Z,54.10
2017-08-24T17:14:45.166Z,54.30
2017-08-24T17:17:13.409Z,54.80
2017-08-24T17:19:41.906Z,54.90
2017-08-24T17:22:10.182Z,54.80
2017-08-24T17:24:38.445Z,54.60
2017-08-24T17:27:06.738Z,54.60
2017-08-24T17:29:35.143Z,55.20
2017-08-24T17:32:03.393Z,56.40
2017-08-24T17:34:31.666Z,57.20
2017-08-24T17:37:00.445Z,56.40
2017-08-24T17:39:28.717Z,56.30
2017-08-24T17:41:57.038Z,56.00
2017-08-24T17:44:25.286Z,56.00
2017-08-24T17:46:53.570Z,56.10
2017-08-24T17:49:22.004Z,56.00
2017-08-24T17:51:50.293Z,56.10
2017-08-24T17:54:18.551Z,56.90
2017-08-24T17:56:46.990Z,57.20
2017-08-24T17:59:15.256Z,57.20
2017-08-24T18:01:44.345Z,56.70
2017-08-24T18:04:13.685Z,56.60
2017-08-24T18:06:43.372Z,56.70
2017-08-24T18:09:11.698Z,57.30
2017-08-24T18:11:40.116Z,56.90
2017-08-24T18:14:08.357Z,56.90
2017-08-24T18:16:37.784Z,56.70
2017-08-24T18:19:06.266Z,57.70
2017-08-24T18:21:35.459Z,56.90
2017-08-24T18:24:03.916Z,57.40
2017-08-24T18:26:32.168Z,57.20
2017-08-24T18:29:00.475Z,58.50
2017-08-24T18:31:28.781Z,57.60
2017-08-24T18:33:57.050Z,59.10
2017-08-24T18:36:25.302Z,58.30
2017-08-24T18:38:53.571Z,57.30
2017-08-24T18:41:21.812Z,57.90
2017-08-24T18:43:50.235Z,58.20
2017-08-24T18:46:18.520Z,59.40
2017-08-24T18:48:46.780Z,59.50
2017-08-24T18:51:15.044Z,57.90
2017-08-24T18:53:43.295Z,59.40
2017-08-24T18:56:11.571Z,57.00
2017-08-24T18:58:39.835Z,58.20
2017-08-24T19:01:08.082Z,59.50
2017-08-24T19:03:36.568Z,60.10
2017-08-24T19:06:04.844Z,61.00
2017-08-24T19:08:33.148Z,62.10
2017-08-24T19:11:01.421Z,63.90
2017-08-24T19:13:29.662Z,65.30
2017-08-24T19:15:58.049Z,64.80
2017-08-24T19:18:26.641Z,64.90
2017-08-24T19:20:54.903Z,65.80
2017-08-24T19:23:23.214Z,66.70
2017-08-24T19:25:51.822Z,66.60
2017-08-24T19:28:20.075Z,67.30
2017-08-24T19:30:48.347Z,67.30
2017-08-24T19:33:16.618Z,68.30
2017-08-24T19:35:44.863Z,69.20
2017-08-24T19:38:13.115Z,69.80
2017-08-24T19:40:41.382Z,70.90
2017-08-24T19:43:09.940Z,70.70
2017-08-24T19:45:38.421Z,70.90
2017-08-24T19:48:06.715Z,71.90
2017-08-24T19:50:34.966Z,72.80
2017-08-24T19:53:03.384Z,73.00
2017-08-24T19:55:31.635Z,73.00
2017-08-24T19:57:59.979Z,73.00
2017-08-24T20:00:28.396Z,74.30
2017-08-24T20:02:56.640Z,74.60
2017-08-24T20:05:24.899Z,74.80
2017-08-24T20:07:53.314Z,74.80
2017-08-24T20:10:21.560Z,75.20
2017-08-24T20:12:49.828Z,75.20
2017-08-24T20:15:18.307Z,75.40
2017-08-24T20:17:46.549Z,76.10
2017-08-24T20:20:14.792Z,76.10
2017-08-24T20:22:43.165Z,77.00
2017-08-24T20:25:11.429Z,77.50
2017-08-24T20:27:39.722Z,75.90
2017-08-24T20:30:08.016Z,74.60
2017-08-24T20:32:36.257Z,73.60
2017-08-24T20:35:04.541Z,70.70
2017-08-24T20:37:32.788Z,71.40
2017-08-24T20:40:01.034Z,68.50
2017-08-24T20:42:29.455Z,69.10
2017-08-24T20:44:57.715Z,68.50
2017-08-24T20:47:26.000Z,68.20
2017-08-24T20:49:54.298Z,68.30
2017-08-24T20:52:22.571Z,67.80
2017-08-24T20:54:50.835Z,68.70
2017-08-24T20:57:19.162Z,68.50
2017-08-24T20:59:47.505Z,68.50
2017-08-24T21:02:15.757Z,68.50
2017-08-24T21:04:44.009Z,67.10
2017-08-24T21:07:12.287Z,66.70
2017-08-24T21:09:40.537Z,66.00
2017-08-24T21:12:09.205Z,64.60
2017-08-24T21:14:37.497Z,63.90
2017-08-24T21:17:05.749Z,64.80
2017-08-24T21:19:34.323Z,64.20
2017-08-24T21:22:02.573Z,64.90
2017-08-24T21:24:30.811Z,62.10
2017-08-24T21:26:59.091Z,63.10
2017-08-24T21:29:27.376Z,64.00
2017-08-24T21:31:55.656Z,65.50
2017-08-24T21:34:23.914Z,64.90
2017-08-24T21:36:52.947Z,64.90
2017-08-24T21:39:21.236Z,64.20
2017-08-24T21:41:49.480Z,64.90
2017-08-24T21:44:17.734Z,64.90
2017-08-24T21:46:46.174Z,64.80
2017-08-24T21:49:14.461Z,66.00
2017-08-24T21:51:43.461Z,64.90
2017-08-24T21:54:11.878Z,64.90
2017-08-24T21:56:40.133Z,65.80
2017-08-24T21:59:08.379Z,64.40
2017-08-24T22:01:37.003Z,66.40
2017-08-24T22:04:05.451Z,67.10
2017-08-24T22:06:33.765Z,68.00
2017-08-24T22:09:02.284Z,66.40
2017-08-24T22:11:30.550Z,67.10
2017-08-24T22:14:00.251Z,66.60
2017-08-24T22:16:28.591Z,67.60
2017-08-24T22:18:56.862Z,66.20
2017-08-24T22:21:25.162Z,66.90
2017-08-24T22:23:53.539Z,67.80
2017-08-24T22:26:21.836Z,68.20
2017-08-24T22:28:50.100Z,68.50
2017-08-24T22:31:18.492Z,66.70
2017-08-24T22:33:46.755Z,68.20
2017-08-24T22:36:15.007Z,68.50
2017-08-24T22:38:43.322Z,69.20
2017-08-24T22:41:11.581Z,69.10
2017-08-24T22:43:39.832Z,68.90
2017-08-24T22:46:08.373Z,69.80
2017-08-24T22:48:36.627Z,68.90
2017-08-24T22:51:04.902Z,69.40
2017-08-24T22:53:38.827Z,69.20
2017-08-24T22:59:11.190Z,69.20
2017-08-24T23:01:46.532Z,69.10
2017-08-24T23:04:14.845Z,69.40
2017-08-24T23:06:43.196Z,68.90
2017-08-24T23:09:11.459Z,67.30
2017-08-24T23:11:40.319Z,68.00
2017-08-24T23:14:08.855Z,68.00
2017-08-24T23:16:37.131Z,67.60
2017-08-24T23:19:05.404Z,68.50
2017-08-24T23:21:33.652Z,69.10
2017-08-24T23:24:01.941Z,67.60
2017-08-24T23:26:31.133Z,69.10
2017-08-24T23:28:59.382Z,69.40
2017-08-24T23:31:27.625Z,70.00
2017-08-24T23:33:55.896Z,69.40
2017-08-24T23:36:24.153Z,69.40
2017-08-24T23:38:52.400Z,68.70
2017-08-24T23:41:20.851Z,68.50
2017-08-24T23:43:49.104Z,68.50
2017-08-24T23:46:17.356Z,69.60
2017-08-24T23:48:45.643Z,69.40
2017-08-24T23:51:13.893Z,68.50
2017-08-24T23:53:42.667Z,69.40
2017-08-24T23:56:10.914Z,70.50
2017-08-24T23:58:39.156Z,70.30
